createdAt,value
2022-08-01T00:00:30.394Z,65.69
2022-08-01T00:03:01.206Z,65.86
2022-08-01T00:05:32.001Z,66.08
2022-08-01T00:08:02.676Z,66.51
2022-08-01T00:10:33.202Z,66.81
2022-08-01T00:13:05.372Z,67.31
2022-08-01T00:15:35.950Z,67.53
2022-08-01T00:18:06.620Z,67.99
2022-08-01T00:20:37.617Z,68.31
2022-08-01T00:23:08.161Z,68.28
2022-08-01T00:25:38.662Z,68.97
2022-08-01T00:28:09.666Z,69.71
2022-08-01T00:30:40.179Z,69.55
2022-08-01T00:33:10.704Z,70.31
2022-08-01T00:35:41.234Z,70.57
2022-08-01T00:38:12.164Z,70.92
2022-08-01T00:40:42.647Z,71.01
2022-08-01T00:43:13.169Z,71.77
2022-08-01T00:45:44.350Z,71.46
2022-08-01T00:48:15.044Z,72.75
2022-08-01T00:50:46.043Z,72.83
2022-08-01T00:53:18.656Z,73.81
2022-08-01T00:55:50.144Z,73.99
2022-08-01T00:58:21.401Z,74.07
2022-08-01T01:00:55.227Z,74.44
2022-08-01T01:06:16.683Z,74.80
2022-08-01T01:08:55.721Z,74.46
2022-08-01T01:11:31.935Z,74.89
2022-08-01T01:14:08.184Z,75.03
2022-08-01T01:16:41.573Z,75.04
2022-08-01T01:19:15.022Z,74.99
2022-08-01T01:22:00.772Z,75.09
2022-08-01T01:25:01.672Z,74.78
2022-08-01T01:27:54.826Z,75.26
2022-08-01T01:30:29.523Z,75.28
2022-08-01T01:33:05.342Z,75.28
2022-08-01T01:35:38.857Z,75.12
2022-08-01T01:38:15.154Z,75.28
2022-08-01T01:40:47.097Z,74.91
2022-08-01T01:43:19.829Z,74.96
2022-08-01T01:45:51.024Z,74.87
2022-08-01T01:48:24.773Z,74.95
2022-08-01T01:50:57.818Z,74.97
2022-08-01T01:53:30.574Z,74.39
2022-08-01T01:56:02.674Z,74.81
2022-08-01T01:58:35.835Z,75.23
2022-08-01T02:01:14.269Z,75.24
2022-08-01T02:03:42.635Z,75.23
2022-08-01T02:06:15.550Z,75.80
2022-08-01T02:08:47.507Z,76.22
2022-08-01T02:11:21.663Z,76.02
2022-08-01T02:14:04.119Z,76.32
2022-08-01T02:16:37.318Z,76.75
2022-08-01T02:19:08.098Z,77.18
2022-08-01T02:21:44.285Z,77.03
2022-08-01T02:24:20.639Z,77.34
2022-08-01T02:26:55.793Z,77.39
2022-08-01T02:29:29.330Z,77.16
2022-08-01T02:32:01.667Z,77.23
2022-08-01T02:34:33.463Z,77.63
2022-08-01T02:37:07.481Z,77.40
2022-08-01T02:39:39.626Z,77.76
2022-08-01T02:42:12.711Z,78.48
2022-08-01T02:44:45.076Z,78.92
2022-08-01T02:47:17.145Z,79.32
2022-08-01T02:49:53.483Z,79.02
2022-08-01T02:52:24.432Z,79.18
2022-08-01T02:54:57.279Z,79.28
2022-08-01T02:57:37.660Z,79.03
2022-08-01T03:00:01.770Z,79.25
2022-08-01T03:02:34.202Z,79.40
2022-08-01T03:05:05.586Z,79.34
2022-08-01T03:07:40.495Z,79.05
2022-08-01T03:10:09.989Z,78.83
2022-08-01T03:12:42.015Z,78.69
2022-08-01T03:15:13.859Z,78.62
2022-08-01T03:17:47.318Z,78.94
2022-08-01T03:20:19.929Z,78.72
2022-08-01T03:22:53.746Z,78.35
2022-08-01T03:25:25.800Z,78.93
2022-08-01T03:27:59.349Z,78.71
2022-08-01T03:30:31.568Z,79.07
2022-08-01T03:33:02.839Z,78.69
2022-08-01T03:35:42.263Z,79.12
2022-08-01T03:38:16.695Z,78.65
2022-08-01T03:40:53.184Z,78.57
2022-08-01T03:43:32.905Z,78.47
2022-08-01T03:46:08.659Z,78.43
2022-08-01T03:48:45.264Z,78.00
2022-08-01T03:51:17.288Z,77.60
2022-08-01T03:53:50.497Z,77.70
2022-08-01T03:56:22.723Z,77.13
2022-08-01T03:58:54.570Z,77.29
2022-08-01T04:01:25.541Z,77.22
2022-08-01T04:03:56.361Z,77.26
2022-08-01T04:06:27.091Z,77.21
2022-08-01T04:08:58.080Z,77.43
2022-08-01T04:11:30.119Z,77.59
2022-08-01T04:14:00.652Z,77.98
2022-08-01T04:16:31.202Z,77.98
2022-08-01T04:19:02.184Z,77.51
2022-08-01T04:21:34.231Z,78.05
2022-08-01T04:24:07.737Z,78.41
2022-08-01T04:26:47.996Z,78.67
2022-08-01T04:29:15.202Z,78.48
2022-08-01T04:31:48.255Z,78.54
2022-08-01T04:34:22.172Z,78.45
2022-08-01T04:36:55.063Z,78.49
2022-08-01T04:39:31.879Z,78.66
2022-08-01T04:42:04.947Z,78.73
2022-08-01T04:44:36.138Z,78.68
2022-08-01T04:47:08.855Z,78.61
2022-08-01T04:49:48.576Z,79.18
2022-08-01T04:52:16.861Z,79.32
2022-08-01T04:54:44.167Z,79.02
2022-08-01T04:57:15.875Z,79.60
2022-08-01T04:59:47.292Z,79.82
2022-08-01T05:02:19.644Z,80.48
2022-08-01T05:04:50.194Z,80.70
2022-08-01T05:07:20.620Z,81.29
2022-08-01T05:09:51.463Z,81.45
2022-08-01T05:12:23.425Z,81.87
2022-08-01T05:14:54.068Z,81.45
2022-08-01T05:17:24.631Z,81.71
2022-08-01T05:19:55.261Z,81.36
2022-08-01T05:22:26.557Z,81.29
2022-08-01T05:25:00.511Z,80.68
2022-08-01T05:27:31.374Z,80.61
2022-08-01T05:30:03.109Z,80.47
2022-08-01T05:32:35.331Z,80.80
2022-08-01T05:35:07.069Z,81.08
2022-08-01T05:37:37.463Z,80.67
2022-08-01T05:40:08.932Z,80.47
2022-08-01T05:42:39.318Z,80.12
2022-08-01T05:45:10.265Z,79.94
2022-08-01T05:47:42.981Z,78.68
2022-08-01T05:50:13.242Z,78.57
2022-08-01T05:52:43.601Z,78.16
2022-08-01T05:55:14.914Z,78.32
2022-08-01T05:57:45.358Z,78.20
2022-08-01T06:00:17.159Z,78.36
2022-08-01T06:02:47.579Z,78.52
2022-08-01T06:05:19.031Z,78.85
2022-08-01T06:07:49.488Z,79.01
2022-08-01T06:10:19.964Z,80.29
2022-08-01T06:12:50.471Z,79.61
2022-08-01T06:15:20.921Z,79.26
2022-08-01T06:17:52.549Z,79.65
2022-08-01T06:20:23.388Z,79.04
2022-08-01T06:22:53.761Z,79.62
2022-08-01T06:25:25.505Z,80.03
2022-08-01T06:27:56.094Z,79.40
2022-08-01T06:30:26.723Z,79.33
2022-08-01T06:32:59.201Z,79.05
2022-08-01T06:35:30.790Z,78.28
2022-08-01T06:38:01.607Z,77.52
2022-08-01T06:40:33.745Z,75.91
2022-08-01T06:43:06.150Z,75.72
2022-08-01T06:45:37.640Z,75.61
2022-08-01T06:48:08.245Z,75.13
2022-08-01T06:50:39.106Z,75.33
2022-08-01T06:53:09.546Z,75.72
2022-08-01T06:55:39.975Z,76.44
2022-08-01T06:58:10.406Z,77.38
2022-08-01T07:00:40.991Z,77.44
2022-08-01T07:03:11.408Z,77.86
2022-08-01T07:05:41.861Z,77.46
2022-08-01T07:08:12.443Z,77.95
2022-08-01T07:10:44.184Z,77.26
2022-08-01T07:13:16.003Z,77.74
2022-08-01T07:15:46.396Z,77.94
2022-08-01T07:18:16.888Z,77.73
2022-08-01T07:20:51.169Z,77.37
2022-08-01T07:23:21.883Z,77.84
2022-08-01T07:25:55.879Z,78.38
2022-08-01T07:28:25.704Z,79.56
2022-08-01T07:30:56.155Z,79.90
2022-08-01T07:33:26.768Z,80.34
2022-08-01T07:35:58.940Z,79.42
2022-08-01T07:38:30.532Z,76.72
2022-08-01T07:41:00.979Z,75.50
2022-08-01T07:43:31.491Z,73.44
2022-08-01T07:46:01.890Z,71.56
2022-08-01T07:48:32.730Z,72.08
2022-08-01T07:51:03.199Z,73.38
2022-08-01T07:53:33.864Z,73.94
2022-08-01T07:56:06.036Z,75.52
2022-08-01T07:58:36.819Z,76.13
2022-08-01T08:01:07.382Z,77.30
2022-08-01T08:03:37.813Z,77.58
2022-08-01T08:06:08.370Z,77.49
2022-08-01T08:08:38.729Z,77.76
2022-08-01T08:11:09.739Z,77.23
2022-08-01T08:13:40.244Z,77.06
2022-08-01T08:16:13.027Z,76.02
2022-08-01T08:18:43.627Z,74.80
2022-08-01T08:21:14.082Z,73.80
2022-08-01T08:24:02.801Z,72.84
2022-08-01T08:26:33.268Z,72.70
2022-08-01T08:29:03.715Z,72.86
2022-08-01T08:31:51.324Z,73.00
2022-08-01T08:34:07.654Z,72.62
2022-08-01T08:36:38.765Z,71.13
2022-08-01T08:39:11.248Z,70.01
2022-08-01T08:41:41.824Z,69.01
2022-08-01T08:44:14.398Z,69.11
2022-08-01T08:46:48.799Z,70.79
2022-08-01T08:49:26.656Z,71.76
2022-08-01T08:52:00.307Z,71.80
2022-08-01T08:54:32.756Z,71.05
2022-08-01T08:57:03.659Z,69.54
2022-08-01T08:59:36.387Z,69.40
2022-08-01T09:02:08.207Z,67.29
2022-08-01T09:04:41.130Z,65.01
2022-08-01T09:07:12.650Z,64.68
2022-08-01T09:09:43.975Z,66.41
2022-08-01T09:12:17.607Z,66.73
2022-08-01T09:14:51.128Z,67.99
2022-08-01T09:17:22.269Z,68.75
2022-08-01T09:19:59.070Z,68.69
2022-08-01T09:22:32.723Z,67.52
2022-08-01T09:25:09.577Z,66.87
2022-08-01T09:27:44.045Z,66.67
2022-08-01T09:30:19.561Z,67.17
2022-08-01T09:33:11.547Z,67.01
2022-08-01T09:35:43.888Z,68.09
2022-08-01T09:38:24.643Z,69.19
2022-08-01T09:40:59.010Z,70.10
2022-08-01T09:43:32.681Z,70.33
2022-08-01T09:46:12.546Z,69.93
2022-08-01T09:48:42.739Z,70.51
2022-08-01T09:51:58.405Z,69.79
2022-08-01T09:53:53.409Z,68.76
2022-08-01T09:56:25.083Z,68.99
2022-08-01T09:59:01.645Z,68.76
2022-08-01T10:01:48.910Z,68.09
2022-08-01T10:04:25.577Z,67.83
2022-08-01T10:06:59.951Z,66.93
2022-08-01T10:09:39.663Z,67.19
2022-08-01T10:12:07.686Z,65.91
2022-08-01T10:14:41.273Z,65.46
2022-08-01T10:17:18.286Z,66.08
2022-08-01T10:19:47.834Z,65.92
2022-08-01T10:22:19.997Z,66.14
2022-08-01T10:24:51.975Z,65.83
2022-08-01T10:27:24.373Z,66.08
2022-08-01T10:30:19.413Z,67.35
2022-08-01T10:32:42.871Z,67.66
2022-08-01T10:35:17.006Z,67.78
2022-08-01T10:37:52.225Z,67.82
2022-08-01T10:40:31.661Z,68.39
2022-08-01T10:42:56.904Z,68.34
2022-08-01T10:45:30.301Z,68.26
2022-08-01T10:48:06.134Z,67.41
2022-08-01T10:50:40.592Z,68.33
2022-08-01T10:53:31.868Z,68.93
2022-08-01T10:56:03.190Z,68.18
2022-08-01T10:58:42.744Z,67.35
2022-08-01T11:01:27.845Z,66.97
2022-08-01T11:04:05.575Z,66.29
2022-08-01T11:06:57.022Z,65.29
2022-08-01T11:09:36.412Z,63.49
2022-08-01T11:12:13.145Z,65.01
2022-08-01T11:15:05.551Z,65.90
2022-08-01T11:17:43.341Z,66.48
2022-08-01T11:20:17.366Z,68.52
2022-08-01T11:23:04.956Z,71.40
2022-08-01T11:26:04.950Z,73.52
2022-08-01T11:28:32.266Z,74.59
2022-08-01T11:31:14.070Z,74.96
2022-08-01T11:33:50.257Z,75.39
2022-08-01T11:36:36.854Z,75.20
2022-08-01T11:39:13.354Z,75.45
2022-08-01T11:41:41.038Z,73.97
2022-08-01T11:44:20.785Z,72.30
2022-08-01T11:47:08.885Z,71.00
2022-08-01T11:49:48.955Z,69.94
2022-08-01T11:52:27.743Z,68.37
2022-08-01T11:55:01.241Z,66.24
2022-08-01T11:57:35.877Z,65.54
2022-08-01T12:00:16.722Z,65.08
2022-08-01T12:02:48.634Z,63.60
2022-08-01T12:05:24.664Z,62.18
2022-08-01T12:07:56.104Z,60.92
2022-08-01T12:10:31.302Z,60.55
2022-08-01T12:13:04.285Z,57.59
2022-08-01T12:15:37.467Z,59.13
2022-08-01T12:18:09.310Z,58.22
2022-08-01T12:20:56.165Z,59.66
2022-08-01T12:23:17.308Z,59.49
2022-08-01T12:25:50.771Z,59.03
2022-08-01T12:28:21.207Z,59.86
2022-08-01T12:30:52.167Z,59.30
2022-08-01T12:33:23.655Z,58.83
2022-08-01T12:35:54.159Z,58.25
2022-08-01T12:38:25.957Z,58.38
2022-08-01T12:40:57.515Z,58.55
2022-08-01T12:43:29.561Z,57.90
2022-08-01T12:46:02.255Z,57.93
2022-08-01T12:48:33.440Z,59.28
2022-08-01T12:51:05.098Z,59.17
2022-08-01T12:53:40.166Z,59.04
2022-08-01T12:56:12.370Z,59.04
2022-08-01T12:58:42.963Z,59.72
2022-08-01T13:01:14.508Z,59.88
2022-08-01T13:03:48.083Z,60.75
2022-08-01T13:06:18.538Z,61.35
2022-08-01T13:08:48.997Z,63.71
2022-08-01T13:11:20.907Z,63.30
2022-08-01T13:13:54.075Z,62.69
2022-08-01T13:16:43.284Z,61.32
2022-08-01T13:18:59.696Z,60.27
2022-08-01T13:21:52.295Z,60.73
2022-08-01T13:24:11.788Z,60.89
2022-08-01T13:26:47.013Z,60.29
2022-08-01T13:29:23.996Z,59.69
2022-08-01T13:31:54.432Z,60.57
2022-08-01T13:34:34.100Z,61.23
2022-08-01T13:37:04.709Z,61.49
2022-08-01T13:39:41.477Z,62.08
2022-08-01T13:42:19.086Z,63.73
2022-08-01T13:44:47.350Z,66.95
2022-08-01T13:47:17.818Z,66.85
2022-08-01T13:49:48.292Z,67.39
2022-08-01T13:52:18.707Z,66.09
2022-08-01T13:54:49.316Z,64.93
2022-08-01T13:57:22.714Z,64.51
2022-08-01T13:59:53.439Z,63.45
2022-08-01T14:02:24.017Z,61.72
2022-08-01T14:04:56.756Z,61.59
2022-08-01T14:07:27.444Z,60.33
2022-08-01T14:10:05.194Z,59.01
2022-08-01T14:12:32.186Z,57.93
2022-08-01T14:15:03.820Z,55.24
2022-08-01T14:17:37.872Z,54.24
2022-08-01T14:20:08.013Z,53.72
2022-08-01T14:22:40.209Z,54.29
2022-08-01T14:25:11.111Z,54.10
2022-08-01T14:27:43.192Z,53.95
2022-08-01T14:30:14.946Z,54.31
2022-08-01T14:32:46.960Z,55.04
2022-08-01T14:35:18.970Z,55.65
2022-08-01T14:37:51.848Z,55.36
2022-08-01T14:40:23.961Z,54.76
2022-08-01T14:42:54.548Z,56.25
2022-08-01T14:45:25.256Z,56.60
2022-08-01T14:47:55.993Z,56.33
2022-08-01T14:50:29.301Z,57.61
2022-08-01T14:52:59.718Z,57.93
2022-08-01T14:55:30.187Z,58.58
2022-08-01T14:58:00.660Z,59.13
2022-08-01T15:00:32.084Z,60.22
2022-08-01T15:03:03.037Z,61.56
2022-08-01T15:05:33.798Z,62.75
2022-08-01T15:08:06.257Z,63.01
2022-08-01T15:10:36.855Z,62.17
2022-08-01T15:13:07.373Z,62.41
2022-08-01T15:15:37.941Z,62.74
2022-08-01T15:18:08.501Z,63.08
2022-08-01T15:20:38.930Z,61.33
2022-08-01T15:23:10.341Z,61.40
2022-08-01T15:25:42.110Z,61.18
2022-08-01T15:28:13.049Z,60.80
2022-08-01T15:30:44.059Z,60.17
2022-08-01T15:33:14.692Z,60.79
2022-08-01T15:35:46.506Z,60.19
2022-08-01T15:38:18.114Z,60.58
2022-08-01T15:40:48.568Z,61.06
2022-08-01T15:43:20.240Z,60.80
2022-08-01T15:45:51.197Z,60.97
2022-08-01T15:48:21.675Z,61.06
2022-08-01T15:50:52.491Z,60.19
2022-08-01T15:53:22.937Z,60.43
2022-08-01T15:55:53.631Z,60.00
2022-08-01T15:58:25.615Z,60.53
2022-08-01T16:00:56.082Z,60.05
2022-08-01T16:03:27.767Z,59.92
2022-08-01T16:05:58.490Z,59.29
2022-08-01T16:08:29.044Z,59.11
2022-08-01T16:10:59.520Z,59.64
2022-08-01T16:13:30.219Z,59.38
2022-08-01T16:16:02.624Z,59.49
2022-08-01T16:18:33.134Z,59.03
2022-08-01T16:21:03.793Z,59.30
2022-08-01T16:23:34.636Z,58.85
2022-08-01T16:26:05.331Z,59.02
2022-08-01T16:28:37.522Z,59.18
2022-08-01T16:31:37.516Z,58.96
2022-08-01T16:33:54.169Z,58.40
2022-08-01T16:36:17.075Z,59.27
2022-08-01T16:38:45.721Z,58.87
2022-08-01T16:41:20.004Z,58.82
2022-08-01T16:43:53.633Z,58.79
2022-08-01T16:46:23.258Z,58.59
2022-08-01T16:48:54.167Z,58.95
2022-08-01T16:51:25.307Z,59.42
2022-08-01T16:53:57.081Z,59.17
2022-08-01T16:56:27.766Z,58.76
2022-08-01T16:58:58.132Z,58.85
2022-08-01T17:02:00.026Z,59.27
2022-08-01T17:04:01.914Z,59.41
2022-08-01T17:06:32.735Z,59.14
2022-08-01T17:09:04.560Z,58.99
2022-08-01T17:11:35.111Z,59.19
2022-08-01T17:14:06.020Z,59.07
2022-08-01T17:16:36.509Z,59.47
2022-08-01T17:19:10.150Z,59.21
2022-08-01T17:21:41.549Z,59.57
2022-08-01T17:24:14.842Z,59.69
2022-08-01T17:26:44.483Z,59.80
2022-08-01T17:29:16.843Z,60.12
2022-08-01T17:31:47.406Z,60.04
2022-08-01T17:34:17.877Z,60.24
2022-08-01T17:36:48.566Z,60.75
2022-08-01T17:39:23.478Z,60.19
2022-08-01T17:41:51.977Z,60.56
2022-08-01T17:44:23.867Z,60.80
2022-08-01T17:46:54.821Z,61.04
2022-08-01T17:49:52.132Z,61.19
2022-08-01T17:51:58.744Z,61.50
2022-08-01T17:54:29.292Z,61.68
2022-08-01T17:57:00.057Z,61.10
2022-08-01T17:59:31.053Z,61.73
2022-08-01T18:02:02.396Z,61.48
2022-08-01T18:04:34.726Z,60.84
2022-08-01T18:07:06.996Z,60.72
2022-08-01T18:09:45.666Z,60.91
2022-08-01T18:12:11.748Z,60.68
2022-08-01T18:14:44.787Z,60.96
2022-08-01T18:17:17.017Z,61.01
2022-08-01T18:19:47.467Z,61.21
2022-08-01T18:22:32.668Z,61.17
2022-08-01T18:24:50.967Z,60.98
2022-08-01T18:27:21.620Z,61.26
2022-08-01T18:29:52.127Z,61.46
2022-08-01T18:32:22.899Z,61.61
2022-08-01T18:34:53.393Z,61.74
2022-08-01T18:37:23.906Z,61.57
2022-08-01T18:39:55.951Z,61.94
2022-08-01T18:42:27.178Z,62.05
2022-08-01T18:44:57.649Z,61.88
2022-08-01T18:47:28.230Z,62.22
2022-08-01T18:49:58.711Z,62.13
2022-08-01T18:52:31.824Z,61.99
2022-08-01T18:55:01.457Z,62.03
2022-08-01T18:57:32.152Z,62.19
2022-08-01T19:00:02.978Z,62.29
2022-08-01T19:02:33.524Z,62.22
2022-08-01T19:05:04.076Z,62.75
2022-08-01T19:08:04.506Z,62.53
2022-08-01T19:10:07.309Z,62.44
2022-08-01T19:12:37.782Z,61.60
2022-08-01T19:15:08.991Z,62.24
2022-08-01T19:17:40.031Z,61.93
2022-08-01T19:20:10.966Z,61.86
2022-08-01T19:22:41.377Z,61.36
2022-08-01T19:25:13.454Z,60.83
2022-08-01T19:27:46.981Z,61.45
2022-08-01T19:30:19.345Z,60.70
2022-08-01T19:32:50.267Z,61.01
2022-08-01T19:35:20.816Z,61.88
2022-08-01T19:37:54.209Z,62.44
2022-08-01T19:40:26.894Z,62.80
2022-08-01T19:42:58.249Z,61.67
2022-08-01T19:45:30.227Z,62.69
2022-08-01T19:48:01.698Z,62.51
2022-08-01T19:50:33.969Z,62.63
2022-08-01T19:53:05.274Z,62.46
2022-08-01T19:55:39.616Z,62.92
2022-08-01T19:58:29.082Z,62.63
2022-08-01T20:00:47.768Z,63.01
2022-08-01T20:03:19.982Z,62.61
2022-08-01T20:05:52.607Z,62.69
2022-08-01T20:08:24.093Z,62.82
2022-08-01T20:10:55.053Z,62.69
2022-08-01T20:13:26.066Z,62.71
2022-08-01T20:15:58.843Z,62.80
2022-08-01T20:18:29.291Z,63.05
2022-08-01T20:21:01.079Z,63.15
2022-08-01T20:23:34.723Z,62.74
2022-08-01T20:26:06.273Z,62.77
2022-08-01T20:28:41.252Z,63.75
2022-08-01T20:31:12.618Z,63.57
2022-08-01T20:33:46.273Z,64.10
2022-08-01T20:36:25.588Z,63.66
2022-08-01T20:38:49.837Z,64.04
2022-08-01T20:41:24.360Z,64.04
2022-08-01T20:43:56.869Z,64.35
2022-08-01T20:46:29.370Z,64.41
2022-08-01T20:49:00.178Z,64.11
2022-08-01T20:51:31.544Z,64.58
2022-08-01T20:54:03.022Z,64.19
2022-08-01T20:56:45.728Z,63.93
2022-08-01T20:59:39.692Z,64.79
2022-08-01T21:02:05.450Z,65.47
2022-08-01T21:04:44.663Z,65.66
2022-08-01T21:07:25.258Z,66.15
2022-08-01T21:10:05.000Z,65.92
2022-08-01T21:12:54.341Z,65.76
2022-08-01T21:15:37.857Z,66.50
2022-08-01T21:18:16.667Z,66.33
2022-08-01T21:21:08.406Z,66.96
2022-08-01T21:24:09.412Z,66.93
2022-08-01T21:26:43.525Z,68.01
2022-08-01T21:29:17.417Z,68.39
2022-08-01T21:31:55.770Z,68.45
2022-08-01T21:34:28.661Z,68.70
2022-08-01T21:36:59.943Z,68.76
2022-08-01T21:39:30.857Z,68.90
2022-08-01T21:42:05.728Z,68.98
2022-08-01T21:44:35.068Z,69.58
2022-08-01T21:47:06.471Z,69.43
2022-08-01T21:49:38.817Z,70.05
2022-08-01T21:52:17.950Z,69.36
2022-08-01T21:54:54.161Z,69.81
2022-08-01T21:57:41.190Z,69.53
2022-08-01T22:00:21.038Z,69.64
2022-08-01T22:02:54.413Z,70.09
2022-08-01T22:05:50.434Z,69.67
2022-08-01T22:08:03.030Z,70.28
2022-08-01T22:10:35.424Z,69.84
2022-08-01T22:13:07.540Z,70.34
2022-08-01T22:15:44.791Z,71.09
2022-08-01T22:18:10.515Z,70.91
2022-08-01T22:20:41.350Z,70.41
2022-08-01T22:23:12.118Z,69.97
2022-08-01T22:25:43.091Z,70.51
2022-08-01T22:28:19.050Z,70.52
2022-08-01T22:30:52.129Z,70.05
2022-08-01T22:33:22.634Z,70.83
2022-08-01T22:35:57.455Z,71.22
2022-08-01T22:38:27.960Z,71.24
2022-08-01T22:41:13.335Z,71.11
2022-08-01T22:44:04.701Z,71.33
2022-08-01T22:46:42.721Z,71.04
2022-08-01T22:49:19.215Z,71.51
2022-08-01T22:51:54.906Z,71.90
2022-08-01T22:54:30.654Z,72.01
2022-08-01T22:57:05.735Z,71.34
2022-08-01T23:00:01.793Z,71.71
2022-08-01T23:02:34.321Z,71.55
2022-08-01T23:05:08.167Z,72.11
2022-08-01T23:07:44.536Z,72.11
2022-08-01T23:10:15.471Z,71.84
2022-08-01T23:12:46.715Z,72.11
2022-08-01T23:15:18.987Z,71.71
2022-08-01T23:17:51.158Z,71.65
2022-08-01T23:20:22.454Z,71.05
2022-08-01T23:22:55.477Z,71.44
2022-08-01T23:25:28.174Z,71.66
2022-08-01T23:28:05.915Z,72.23
2022-08-01T23:30:34.310Z,72.38
2022-08-01T23:33:05.479Z,72.53
2022-08-01T23:35:38.922Z,72.54
2022-08-01T23:38:10.866Z,72.54
2022-08-01T23:40:41.523Z,72.90
2022-08-01T23:43:16.997Z,72.68
2022-08-01T23:46:02.692Z,72.65
2022-08-01T23:48:17.787Z,72.39
2022-08-01T23:50:49.532Z,72.94
2022-08-01T23:53:20.089Z,73.05
2022-08-01T23:55:51.411Z,72.54
2022-08-01T23:58:23.442Z,71.46
